createdAt,value
2022-12-13T00:01:52.098Z,-4.01
2022-12-13T00:04:23.840Z,-4.12
2022-12-13T00:06:54.613Z,-4.18
2022-12-13T00:09:23.383Z,-4.29
2022-12-13T00:11:52.334Z,-4.28
2022-12-13T00:14:20.931Z,-4.09
2022-12-13T00:16:50.554Z,-4.08
2022-12-13T00:19:21.450Z,-4.28
2022-12-13T00:21:53.080Z,-4.54
2022-12-13T00:24:21.719Z,-4.44
2022-12-13T00:26:50.300Z,-4.79
2022-12-13T00:29:18.921Z,-4.91
2022-12-13T00:32:00.038Z,-4.62
2022-12-13T00:34:29.457Z,-4.27
2022-12-13T00:37:00.350Z,-4.06
2022-12-13T00:39:29.443Z,-3.87
2022-12-13T00:41:58.410Z,-4.37
2022-12-13T00:44:27.148Z,-4.59
2022-12-13T00:46:55.378Z,-4.69
2022-12-13T00:49:24.354Z,-4.47
2022-12-13T00:51:53.290Z,-4.54
2022-12-13T00:54:23.386Z,-4.37
2022-12-13T00:56:52.596Z,-4.37
2022-12-13T00:59:21.459Z,-4.43
2022-12-13T01:01:50.041Z,-4.28
2022-12-13T01:04:19.148Z,-4.24
2022-12-13T01:06:49.986Z,-4.12
2022-12-13T01:09:20.878Z,-3.94
2022-12-13T01:11:51.183Z,-4.08
2022-12-13T01:14:21.421Z,-4.04
2022-12-13T01:16:50.011Z,-4.20
2022-12-13T01:19:19.344Z,-4.60
2022-12-13T01:21:47.924Z,-4.43
2022-12-13T01:24:20.671Z,-4.51
2022-12-13T01:26:50.703Z,-4.47
2022-12-13T01:29:19.697Z,-4.69
2022-12-13T01:31:48.466Z,-4.75
2022-12-13T01:34:18.977Z,-4.49
2022-12-13T01:36:48.929Z,-4.74
2022-12-13T01:39:20.361Z,-4.80
2022-12-13T01:42:00.050Z,-4.60
2022-12-13T01:44:59.979Z,-4.54
2022-12-13T01:47:31.208Z,-4.32
2022-12-13T01:50:01.629Z,-4.45
2022-12-13T01:52:29.942Z,-4.55
2022-12-13T01:55:03.169Z,-4.41
2022-12-13T01:57:34.717Z,-4.29
2022-12-13T02:00:05.992Z,-4.51
2022-12-13T02:02:36.170Z,-4.77
2022-12-13T02:05:07.278Z,-4.42
2022-12-13T02:07:36.659Z,-4.53
2022-12-13T02:10:08.833Z,-4.72
2022-12-13T02:12:39.851Z,-4.89
2022-12-13T02:15:12.635Z,-4.68
2022-12-13T02:17:56.662Z,-4.59
2022-12-13T02:20:38.470Z,-4.37
2022-12-13T02:23:32.017Z,-4.47
2022-12-13T02:26:33.914Z,-4.20
2022-12-13T02:29:14.493Z,-4.15
2022-12-13T02:32:03.414Z,-4.26
2022-12-13T02:34:37.937Z,-4.33
2022-12-13T02:37:18.265Z,-4.21
2022-12-13T02:39:52.349Z,-4.08
2022-12-13T02:42:23.139Z,-4.64
2022-12-13T02:44:53.893Z,-4.33
2022-12-13T02:47:25.676Z,-4.32
2022-12-13T02:49:57.440Z,-3.83
2022-12-13T02:52:27.653Z,-4.25
2022-12-13T02:54:57.693Z,-4.12
2022-12-13T02:57:31.664Z,-4.09
2022-12-13T03:00:05.206Z,-3.77
2022-12-13T03:02:43.639Z,-4.18
2022-12-13T03:05:36.417Z,-4.07
2022-12-13T03:08:16.067Z,-3.96
2022-12-13T03:10:46.292Z,-4.09
2022-12-13T03:13:32.606Z,-3.78
2022-12-13T03:16:04.272Z,-4.09
2022-12-13T03:18:35.337Z,-4.19
2022-12-13T03:21:09.052Z,-3.85
2022-12-13T03:23:38.950Z,-4.54
2022-12-13T03:26:11.088Z,-3.83
2022-12-13T03:28:40.009Z,-4.02
2022-12-13T03:31:09.057Z,-4.08
2022-12-13T03:33:39.762Z,-3.79
2022-12-13T03:36:09.396Z,-3.78
2022-12-13T03:38:38.462Z,-4.19
2022-12-13T03:41:09.441Z,-4.07
2022-12-13T03:43:37.888Z,-3.94
2022-12-13T03:46:06.969Z,-3.97
2022-12-13T03:48:35.699Z,-4.22
2022-12-13T03:51:06.052Z,-3.71
2022-12-13T03:53:35.296Z,-3.78
2022-12-13T03:56:05.618Z,-4.11
2022-12-13T03:58:37.721Z,-4.15
2022-12-13T04:01:08.726Z,-4.16
2022-12-13T04:03:38.308Z,-4.21
2022-12-13T04:06:09.533Z,-4.38
2022-12-13T04:08:38.901Z,-4.07
2022-12-13T04:11:22.366Z,-4.19
2022-12-13T04:13:50.737Z,-4.34
2022-12-13T04:16:19.576Z,-3.68
2022-12-13T04:18:48.343Z,-4.14
2022-12-13T04:21:18.442Z,-3.86
2022-12-13T04:23:46.865Z,-3.97
2022-12-13T04:26:15.564Z,-4.13
2022-12-13T04:28:45.271Z,-3.92
2022-12-13T04:31:15.730Z,-3.82
2022-12-13T04:33:44.448Z,-3.87
2022-12-13T04:36:31.572Z,-4.09
2022-12-13T04:39:03.613Z,-4.79
2022-12-13T04:41:51.702Z,-4.91
2022-12-13T04:44:27.324Z,-4.64
2022-12-13T04:46:56.154Z,-4.45
2022-12-13T04:49:30.343Z,-4.26
2022-12-13T04:52:01.536Z,-4.27
2022-12-13T04:54:36.650Z,-4.11
2022-12-13T04:57:07.878Z,-4.14
2022-12-13T04:59:36.982Z,-4.29
2022-12-13T05:02:06.937Z,-4.00
2022-12-13T05:04:35.556Z,-4.15
2022-12-13T05:07:04.832Z,-4.05
2022-12-13T05:09:35.132Z,-4.01
2022-12-13T05:12:03.532Z,-4.16
2022-12-13T05:14:32.530Z,-4.35
2022-12-13T05:17:01.724Z,-4.73
2022-12-13T05:19:31.737Z,-4.89
2022-12-13T05:22:01.129Z,-4.57
2022-12-13T05:24:32.385Z,-4.76
2022-12-13T05:27:02.099Z,-4.23
2022-12-13T05:29:52.076Z,-5.00
2022-12-13T05:32:23.786Z,-5.62
2022-12-13T05:34:52.599Z,-4.88
2022-12-13T05:37:21.835Z,-5.17
2022-12-13T05:39:50.458Z,-5.11
2022-12-13T05:42:20.542Z,-5.46
2022-12-13T05:44:49.020Z,-4.85
2022-12-13T05:47:18.908Z,-5.12
2022-12-13T05:49:47.178Z,-5.43
2022-12-13T05:52:19.277Z,-5.57
2022-12-13T05:54:48.016Z,-5.62
2022-12-13T05:57:16.755Z,-5.01
2022-12-13T05:59:46.909Z,-4.91
2022-12-13T06:02:21.169Z,-4.87
2022-12-13T06:04:49.924Z,-4.92
2022-12-13T06:07:18.686Z,-4.98
2022-12-13T06:09:47.357Z,-5.10
2022-12-13T06:12:32.059Z,-5.41
2022-12-13T06:15:02.999Z,-5.46
2022-12-13T06:17:32.153Z,-4.89
2022-12-13T06:20:01.078Z,-5.08
2022-12-13T06:22:29.535Z,-4.73
2022-12-13T06:24:58.206Z,-4.92
2022-12-13T06:27:26.855Z,-5.00
2022-12-13T06:29:57.672Z,-5.14
2022-12-13T06:32:31.080Z,-5.03
2022-12-13T06:34:59.476Z,-5.03
2022-12-13T06:37:28.616Z,-5.40
2022-12-13T06:39:57.404Z,-5.17
2022-12-13T06:42:26.132Z,-5.32
2022-12-13T06:44:55.633Z,-5.63
2022-12-13T06:47:31.982Z,-6.17
2022-12-13T06:50:05.339Z,-5.25
2022-12-13T06:52:35.117Z,-5.28
2022-12-13T06:55:04.118Z,-5.34
2022-12-13T06:57:33.821Z,-5.08
2022-12-13T07:00:05.213Z,-5.23
2022-12-13T07:02:34.323Z,-5.22
2022-12-13T07:05:04.633Z,-5.42
2022-12-13T07:07:32.923Z,-5.50
2022-12-13T07:10:01.739Z,-5.60
2022-12-13T07:12:30.414Z,-5.23
2022-12-13T07:14:59.096Z,-5.23
2022-12-13T07:17:32.750Z,-5.00
2022-12-13T07:20:08.124Z,-4.94
2022-12-13T07:22:45.171Z,-4.92
2022-12-13T07:25:27.987Z,-4.89
2022-12-13T07:28:03.292Z,-5.75
2022-12-13T07:30:33.647Z,-5.20
2022-12-13T07:33:02.291Z,-5.39
2022-12-13T07:35:37.414Z,-5.23
2022-12-13T07:38:08.800Z,-5.21
2022-12-13T07:40:40.465Z,-4.92
2022-12-13T07:43:10.599Z,-4.96
2022-12-13T07:45:39.219Z,-4.98
2022-12-13T07:48:08.972Z,-5.19
2022-12-13T07:50:39.078Z,-5.02
2022-12-13T07:53:08.736Z,-4.98
2022-12-13T07:55:37.884Z,-5.34
2022-12-13T07:58:10.901Z,-5.08
2022-12-13T08:00:40.189Z,-5.23
2022-12-13T08:03:12.208Z,-5.73
2022-12-13T08:06:02.039Z,-5.62
2022-12-13T08:08:31.914Z,-5.75
2022-12-13T08:11:03.309Z,-5.72
2022-12-13T08:13:32.988Z,-5.52
2022-12-13T08:16:02.493Z,-5.57
2022-12-13T08:18:31.877Z,-5.54
2022-12-13T08:21:01.959Z,-5.16
2022-12-13T08:23:32.036Z,-5.07
2022-12-13T08:26:01.545Z,-5.35
2022-12-13T08:28:31.006Z,-5.32
2022-12-13T08:31:05.177Z,-4.83
2022-12-13T08:33:35.249Z,-5.24
2022-12-13T08:36:15.838Z,-5.29
2022-12-13T08:38:45.365Z,-5.17
2022-12-13T08:41:14.710Z,-5.57
2022-12-13T08:43:43.446Z,-5.65
2022-12-13T08:46:12.309Z,-5.50
2022-12-13T08:48:44.472Z,-5.44
2022-12-13T08:51:24.451Z,-5.61
2022-12-13T08:54:10.623Z,-5.87
2022-12-13T08:56:43.813Z,-5.47
2022-12-13T08:59:12.683Z,-5.08
2022-12-13T09:01:44.410Z,-5.53
2022-12-13T09:04:13.119Z,-5.47
2022-12-13T09:06:44.943Z,-5.28
2022-12-13T09:09:13.982Z,-5.23
2022-12-13T09:11:42.789Z,-5.24
2022-12-13T09:14:13.974Z,-5.14
2022-12-13T09:16:42.568Z,-4.91
2022-12-13T09:19:25.769Z,-5.30
2022-12-13T09:22:02.653Z,-4.98
2022-12-13T09:24:36.539Z,-5.22
2022-12-13T09:27:09.154Z,-5.30
2022-12-13T09:29:40.335Z,-5.30
2022-12-13T09:32:09.000Z,-5.66
2022-12-13T09:34:37.492Z,-5.65
2022-12-13T09:37:09.207Z,-5.59
2022-12-13T09:39:38.014Z,-5.61
2022-12-13T09:42:10.592Z,-5.94
2022-12-13T09:44:46.543Z,-5.33
2022-12-13T09:47:22.821Z,-5.26
2022-12-13T09:49:53.827Z,-5.20
2022-12-13T09:52:25.543Z,-4.89
2022-12-13T09:54:56.153Z,-4.59
2022-12-13T09:57:31.563Z,-4.99
2022-12-13T10:00:04.672Z,-5.49
2022-12-13T10:02:43.736Z,-5.41
2022-12-13T10:05:22.213Z,-5.64
2022-12-13T10:07:54.471Z,-5.49
2022-12-13T10:10:23.516Z,-5.42
2022-12-13T10:12:56.992Z,-5.55
2022-12-13T10:15:26.650Z,-5.79
2022-12-13T10:17:56.084Z,-6.05
2022-12-13T10:20:29.035Z,-6.12
2022-12-13T10:23:31.504Z,-5.89
2022-12-13T10:25:54.771Z,-5.51
2022-12-13T10:28:33.883Z,-5.29
2022-12-13T10:31:02.963Z,-5.71
2022-12-13T10:33:34.210Z,-5.18
2022-12-13T10:36:05.384Z,-5.22
2022-12-13T10:38:38.686Z,-5.52
2022-12-13T10:41:30.562Z,-6.03
2022-12-13T10:44:23.026Z,-5.76
2022-12-13T10:47:06.346Z,-6.02
2022-12-13T10:49:40.436Z,-5.96
2022-12-13T10:52:30.856Z,-5.47
2022-12-13T10:55:22.751Z,-5.17
2022-12-13T10:57:52.750Z,-5.20
2022-12-13T11:00:33.387Z,-5.53
2022-12-13T11:03:02.153Z,-5.19
2022-12-13T11:05:33.741Z,-5.17
2022-12-13T11:08:16.831Z,-4.89
2022-12-13T11:10:46.849Z,-4.81
2022-12-13T11:13:34.251Z,-4.49
2022-12-13T11:16:03.249Z,-4.66
2022-12-13T11:18:36.607Z,-4.26
2022-12-13T11:21:07.953Z,-4.69
2022-12-13T11:23:39.692Z,-4.61
2022-12-13T11:26:11.730Z,-4.28
2022-12-13T11:29:00.338Z,-4.68
2022-12-13T11:31:32.818Z,-4.63
2022-12-13T11:34:07.590Z,-4.89
2022-12-13T11:36:43.919Z,-4.28
2022-12-13T11:39:18.926Z,-5.12
2022-12-13T11:41:55.505Z,-5.61
2022-12-13T11:44:29.568Z,-5.43
2022-12-13T11:46:59.873Z,-5.19
2022-12-13T11:49:36.715Z,-5.41
2022-12-13T11:52:11.033Z,-5.63
2022-12-13T11:54:49.465Z,-4.96
2022-12-13T11:57:28.763Z,-4.84
2022-12-13T12:00:02.901Z,-4.52
2022-12-13T12:02:35.870Z,-4.20
2022-12-13T12:05:07.719Z,-4.57
2022-12-13T12:07:58.364Z,-4.56
2022-12-13T12:10:32.259Z,-4.64
2022-12-13T12:13:07.322Z,-4.53
2022-12-13T12:15:42.092Z,-4.34
2022-12-13T12:18:15.680Z,-5.26
2022-12-13T12:20:57.087Z,-5.33
2022-12-13T12:23:44.389Z,-5.44
2022-12-13T12:26:16.302Z,-5.68
2022-12-13T12:28:54.411Z,-5.55
2022-12-13T12:31:27.511Z,-5.66
2022-12-13T12:34:03.097Z,-5.52
2022-12-13T12:36:42.119Z,-5.25
2022-12-13T12:39:35.834Z,-5.19
2022-12-13T12:42:21.055Z,-5.41
2022-12-13T12:45:04.357Z,-5.34
2022-12-13T12:48:29.717Z,-5.71
2022-12-13T12:50:37.920Z,-5.95
2022-12-13T12:53:24.716Z,-5.84
2022-12-13T12:56:00.691Z,-5.65
2022-12-13T12:58:35.927Z,-5.45
2022-12-13T13:01:16.463Z,-5.39
2022-12-13T13:03:45.860Z,-5.46
2022-12-13T13:06:18.807Z,-5.19
2022-12-13T13:08:55.316Z,-5.58
2022-12-13T13:11:26.332Z,-5.27
2022-12-13T13:14:08.318Z,-5.63
2022-12-13T13:16:40.560Z,-6.05
2022-12-13T13:19:44.622Z,-5.56
2022-12-13T13:22:32.192Z,-6.24
2022-12-13T13:25:23.167Z,-6.41
2022-12-13T13:27:52.888Z,-6.43
2022-12-13T13:30:23.499Z,-6.33
2022-12-13T13:32:54.488Z,-6.30
2022-12-13T13:35:53.785Z,-6.31
2022-12-13T13:38:52.241Z,-6.25
2022-12-13T13:41:56.201Z,-6.13
2022-12-13T13:45:10.613Z,-6.30
2022-12-13T13:47:41.108Z,-6.43
2022-12-13T13:51:06.485Z,-6.38
2022-12-13T13:54:07.112Z,-6.23
2022-12-13T13:56:50.230Z,-6.37
2022-12-13T13:59:59.075Z,-6.50
2022-12-13T14:03:00.538Z,-6.49
2022-12-13T14:05:58.172Z,-6.52
2022-12-13T14:08:38.046Z,-6.64
2022-12-13T14:11:24.742Z,-6.89
2022-12-13T14:14:31.186Z,-6.99
2022-12-13T14:17:32.836Z,-7.12
2022-12-13T14:20:23.750Z,-6.90
2022-12-13T14:22:58.207Z,-6.86
2022-12-13T14:25:59.905Z,-6.97
2022-12-13T14:28:38.303Z,-6.85
2022-12-13T14:31:21.472Z,-6.69
2022-12-13T14:33:53.682Z,-6.85
2022-12-13T14:36:29.098Z,-6.82
2022-12-13T14:39:02.411Z,-6.98
2022-12-13T14:41:31.492Z,-6.93
2022-12-13T14:47:01.071Z,-7.04
2022-12-13T14:49:31.156Z,-7.22
2022-12-13T14:52:03.562Z,-7.07
2022-12-13T14:54:36.805Z,-6.95
2022-12-13T14:57:06.153Z,-7.05
2022-12-13T14:59:34.888Z,-7.03
2022-12-13T15:02:06.776Z,-6.92
2022-12-13T15:04:38.713Z,-7.06
2022-12-13T15:07:09.581Z,-7.10
2022-12-13T15:09:40.648Z,-6.95
2022-12-13T15:12:23.456Z,-6.97
2022-12-13T15:14:59.878Z,-6.93
2022-12-13T15:17:33.063Z,-7.26
2022-12-13T15:20:30.192Z,-6.96
2022-12-13T15:23:06.163Z,-7.18
2022-12-13T15:25:38.851Z,-7.23
2022-12-13T15:28:08.126Z,-7.08
2022-12-13T15:30:37.173Z,-7.33
2022-12-13T15:33:10.480Z,-7.06
2022-12-13T15:35:40.232Z,-7.18
2022-12-13T15:38:12.561Z,-7.06
2022-12-13T15:40:45.140Z,-6.84
2022-12-13T15:43:16.812Z,-6.77
2022-12-13T15:45:47.648Z,-6.78
2022-12-13T15:48:26.922Z,-6.73
2022-12-13T15:51:13.733Z,-6.63
2022-12-13T15:54:07.504Z,-6.90
2022-12-13T15:56:37.686Z,-6.89
2022-12-13T15:59:07.798Z,-6.83
2022-12-13T16:01:37.253Z,-6.75
2022-12-13T16:04:07.690Z,-6.60
2022-12-13T16:06:36.611Z,-6.78
2022-12-13T16:09:08.013Z,-6.86
2022-12-13T16:11:40.608Z,-7.00
2022-12-13T16:14:28.638Z,-6.87
2022-12-13T16:16:57.646Z,-7.28
2022-12-13T16:19:27.700Z,-7.11
2022-12-13T16:21:56.396Z,-7.24
2022-12-13T16:24:26.261Z,-7.38
2022-12-13T16:26:54.881Z,-7.20
2022-12-13T16:29:23.581Z,-7.18
2022-12-13T16:31:54.859Z,-7.10
2022-12-13T16:34:28.165Z,-7.17
2022-12-13T16:36:59.645Z,-7.20
2022-12-13T16:39:28.338Z,-7.07
2022-12-13T16:41:57.130Z,-7.17
2022-12-13T16:44:31.968Z,-6.93
2022-12-13T16:47:17.243Z,-7.12
2022-12-13T16:49:51.080Z,-7.11
2022-12-13T16:52:22.104Z,-7.08
2022-12-13T16:54:52.914Z,-7.13
2022-12-13T16:57:21.730Z,-7.11
2022-12-13T16:59:50.303Z,-7.04
2022-12-13T17:02:19.496Z,-7.19
2022-12-13T17:04:48.950Z,-7.07
2022-12-13T17:07:19.827Z,-7.21
2022-12-13T17:09:49.701Z,-7.32
2022-12-13T17:12:18.720Z,-7.12
2022-12-13T17:14:47.458Z,-7.20
2022-12-13T17:17:17.898Z,-7.13
2022-12-13T17:19:46.411Z,-7.08
2022-12-13T17:22:15.101Z,-7.12
2022-12-13T17:24:45.163Z,-7.11
2022-12-13T17:27:14.403Z,-7.00
2022-12-13T17:29:43.156Z,-7.34
2022-12-13T17:32:11.802Z,-7.12
2022-12-13T17:34:40.159Z,-7.14
2022-12-13T17:37:10.743Z,-7.40
2022-12-13T17:39:39.652Z,-7.23
2022-12-13T17:42:09.844Z,-7.28
2022-12-13T17:44:39.094Z,-7.20
2022-12-13T17:47:07.766Z,-7.30
2022-12-13T17:49:36.433Z,-7.27
2022-12-13T17:52:05.274Z,-7.47
2022-12-13T17:54:34.074Z,-7.23
2022-12-13T17:57:02.941Z,-7.43
2022-12-13T17:59:35.017Z,-7.09
2022-12-13T18:02:05.863Z,-7.08
2022-12-13T18:04:34.247Z,-7.12
2022-12-13T18:07:02.958Z,-7.27
2022-12-13T18:09:31.753Z,-7.03
2022-12-13T18:12:00.445Z,-7.19
2022-12-13T18:14:29.631Z,-7.28
2022-12-13T18:17:00.928Z,-7.13
2022-12-13T18:19:32.018Z,-7.30
2022-12-13T18:22:01.426Z,-7.50
2022-12-13T18:24:29.981Z,-7.28
2022-12-13T18:26:58.852Z,-7.39
2022-12-13T18:29:27.656Z,-7.43
2022-12-13T18:31:55.983Z,-7.52
2022-12-13T18:34:26.381Z,-7.36
2022-12-13T18:36:54.727Z,-7.31
2022-12-13T18:39:23.616Z,-7.28
2022-12-13T18:41:53.836Z,-7.35
2022-12-13T18:44:22.775Z,-7.32
2022-12-13T18:46:51.724Z,-7.20
2022-12-13T18:49:20.401Z,-7.16
2022-12-13T18:51:50.509Z,-7.34
2022-12-13T18:54:19.167Z,-7.35
2022-12-13T18:56:47.919Z,-7.53
2022-12-13T18:59:16.545Z,-7.16
2022-12-13T19:01:44.974Z,-7.46
2022-12-13T19:04:15.467Z,-7.55
2022-12-13T19:06:44.067Z,-7.31
2022-12-13T19:09:14.115Z,-7.22
2022-12-13T19:11:42.967Z,-7.45
2022-12-13T19:14:11.661Z,-7.72
2022-12-13T19:16:39.934Z,-7.85
2022-12-13T19:19:09.525Z,-7.77
2022-12-13T19:21:38.243Z,-7.99
2022-12-13T19:24:10.984Z,-7.81
2022-12-13T19:26:41.248Z,-7.77
2022-12-13T19:29:09.985Z,-8.02
2022-12-13T19:31:38.545Z,-8.04
2022-12-13T19:34:07.283Z,-7.96
2022-12-13T19:36:35.952Z,-7.85
2022-12-13T19:39:04.987Z,-7.97
2022-12-13T19:41:34.079Z,-8.05
2022-12-13T19:44:05.081Z,-7.95
2022-12-13T19:46:33.689Z,-8.22
2022-12-13T19:49:02.395Z,-8.07
2022-12-13T19:51:37.501Z,-8.18
2022-12-13T19:54:07.910Z,-8.30
2022-12-13T19:56:36.652Z,-8.29
2022-12-13T19:59:06.706Z,-8.10
2022-12-13T20:01:35.030Z,-8.15
2022-12-13T20:04:05.366Z,-8.20
2022-12-13T20:06:34.357Z,-8.37
2022-12-13T20:09:03.020Z,-8.21
2022-12-13T20:11:32.140Z,-8.42
2022-12-13T20:14:00.789Z,-8.30
2022-12-13T20:16:30.608Z,-8.40
2022-12-13T20:19:00.767Z,-8.30
2022-12-13T20:21:29.756Z,-8.23
2022-12-13T20:23:58.958Z,-8.46
2022-12-13T20:26:29.548Z,-8.42
2022-12-13T20:28:58.450Z,-8.49
2022-12-13T20:31:31.586Z,-8.30
2022-12-13T20:34:02.351Z,-8.69
2022-12-13T20:36:31.933Z,-8.81
2022-12-13T20:39:02.253Z,-8.77
2022-12-13T20:41:32.420Z,-8.65
2022-12-13T20:44:01.333Z,-8.64
2022-12-13T20:46:31.915Z,-8.50
2022-12-13T20:49:03.527Z,-8.38
2022-12-13T20:51:33.377Z,-8.42
2022-12-13T20:54:02.130Z,-8.57
2022-12-13T20:56:34.452Z,-8.64
2022-12-13T20:59:03.574Z,-8.61
2022-12-13T21:01:36.205Z,-8.66
2022-12-13T21:04:07.024Z,-8.79
2022-12-13T21:06:37.838Z,-8.76
2022-12-13T21:09:07.046Z,-8.76
2022-12-13T21:11:37.329Z,-8.71
2022-12-13T21:14:11.158Z,-8.53
2022-12-13T21:16:44.652Z,-8.68
2022-12-13T21:19:15.644Z,-8.77
2022-12-13T21:21:44.524Z,-8.81
2022-12-13T21:24:14.959Z,-8.76
2022-12-13T21:26:43.665Z,-8.79
2022-12-13T21:29:12.875Z,-8.92
2022-12-13T21:31:44.124Z,-9.06
2022-12-13T21:34:18.186Z,-8.98
2022-12-13T21:36:48.534Z,-9.08
2022-12-13T21:39:18.790Z,-9.13
2022-12-13T21:41:48.192Z,-9.04
2022-12-13T21:44:18.469Z,-9.16
2022-12-13T21:49:37.464Z,-9.12
2022-12-13T21:52:06.500Z,-9.24
2022-12-13T21:54:35.189Z,-9.22
2022-12-13T21:57:21.361Z,-9.42
2022-12-13T21:59:50.059Z,-9.38
2022-12-13T22:02:20.351Z,-9.35
2022-12-13T22:04:49.433Z,-9.41
2022-12-13T22:07:19.704Z,-9.30
2022-12-13T22:09:49.812Z,-9.37
2022-12-13T22:12:21.721Z,-9.51
2022-12-13T22:14:50.881Z,-9.49
2022-12-13T22:17:29.717Z,-9.45
2022-12-13T22:20:02.196Z,-9.52
2022-12-13T22:22:30.977Z,-9.41
2022-12-13T22:24:59.701Z,-9.50
2022-12-13T22:27:28.377Z,-9.54
2022-12-13T22:29:58.263Z,-9.48
2022-12-13T22:32:30.829Z,-9.50
2022-12-13T22:34:59.189Z,-9.56
2022-12-13T22:37:28.186Z,-9.49
2022-12-13T22:39:56.909Z,-9.66
2022-12-13T22:42:26.029Z,-9.53
2022-12-13T22:44:54.649Z,-9.55
2022-12-13T22:47:23.302Z,-9.61
2022-12-13T22:49:52.967Z,-9.55
2022-12-13T22:52:21.906Z,-9.62
2022-12-13T22:54:50.658Z,-9.58
2022-12-13T22:57:19.474Z,-9.46
2022-12-13T22:59:48.140Z,-9.60
2022-12-13T23:02:16.993Z,-9.57
2022-12-13T23:04:45.583Z,-9.58
2022-12-13T23:07:15.678Z,-9.60
2022-12-13T23:09:44.401Z,-9.68
2022-12-13T23:12:30.837Z,-9.64
2022-12-13T23:14:59.706Z,-9.59
2022-12-13T23:17:28.379Z,-9.71
2022-12-13T23:19:56.687Z,-9.65
2022-12-13T23:22:27.300Z,-9.55
2022-12-13T23:24:55.988Z,-9.85
2022-12-13T23:27:25.580Z,-9.69
2022-12-13T23:29:54.194Z,-9.89
2022-12-13T23:32:23.117Z,-9.90
2022-12-13T23:34:51.531Z,-9.86
2022-12-13T23:37:20.143Z,-10.05
2022-12-13T23:39:50.775Z,-10.05
2022-12-13T23:42:19.387Z,-10.17
2022-12-13T23:44:48.235Z,-10.36
2022-12-13T23:47:16.874Z,-10.31
2022-12-13T23:49:45.115Z,-10.55
2022-12-13T23:52:16.999Z,-10.36
2022-12-13T23:54:45.635Z,-10.43
2022-12-13T23:57:15.705Z,-10.11
2022-12-13T23:59:44.103Z,-10.03
